Time;durP1;ratioP1;P1;durP2;ratioP2;P2;SDS_P1;SDS_P2;PMS_P1;PMS_P2;Temp;Humidity;BMP_temperature;BMP_pressure;BME280_temperature;BME280_humidity;BME280_pressure;Samples;Min_cycle;Max_cycle;Signal;HPM_P1;HPM_P2
2023/08/04 00:00:49;;;;;;;8.38;4.15;;;;;;;15.15;100.00;100026.75;4936005;29;20047;-84
2023/08/04 00:03:16;;;;;;;8.32;3.83;;;;;;;15.23;100.00;100037.00;4922255;29;20046;-85
2023/08/04 00:05:43;;;;;;;8.85;4.78;;;;;;;15.30;100.00;100032.34;4930256;29;20062;-92
2023/08/04 00:08:10;;;;;;;8.32;4.53;;;;;;;15.36;100.00;100038.25;4908259;29;20039;-85
2023/08/04 00:10:36;;;;;;;5.80;2.95;;;;;;;15.46;100.00;100040.53;4931071;29;20031;-83
2023/08/04 00:13:03;;;;;;;8.45;3.83;;;;;;;15.50;100.00;100039.47;4939677;29;20058;-84
2023/08/04 00:15:32;;;;;;;9.82;3.75;;;;;;;15.57;100.00;100032.22;4935143;29;20048;-83
2023/08/04 00:17:58;;;;;;;10.27;4.40;;;;;;;15.65;100.00;100048.59;4917736;29;20146;-86
2023/08/04 00:20:25;;;;;;;10.20;3.60;;;;;;;15.70;100.00;100044.84;4919611;29;20062;-84
2023/08/04 00:22:52;;;;;;;8.82;4.25;;;;;;;15.70;100.00;100049.25;4937302;29;20056;-86
2023/08/04 00:25:19;;;;;;;9.48;4.72;;;;;;;15.76;100.00;100056.94;4925037;29;20050;-83
2023/08/04 00:27:46;;;;;;;13.57;4.47;;;;;;;15.76;100.00;100049.03;4934156;29;20079;-82
2023/08/04 00:30:13;;;;;;;7.10;3.38;;;;;;;15.78;100.00;100059.50;4934192;29;20036;-83
2023/08/04 00:32:42;;;;;;;12.90;4.30;;;;;;;15.79;100.00;100071.78;4927724;29;20045;-83
2023/08/04 00:35:09;;;;;;;7.78;3.45;;;;;;;15.77;100.00;100070.97;4934900;29;20039;-84
2023/08/04 00:37:37;;;;;;;12.68;4.55;;;;;;;15.78;100.00;100078.81;4933321;29;20479;-86
2023/08/04 00:40:04;;;;;;;6.10;3.72;;;;;;;15.79;100.00;100088.47;4918382;29;20075;-83
2023/08/04 00:42:31;;;;;;;12.13;2.97;;;;;;;15.77;100.00;100095.56;4928132;29;20051;-83
2023/08/04 00:44:57;;;;;;;6.47;2.85;;;;;;;15.77;100.00;100095.56;4934062;29;20039;-85
2023/08/04 00:47:25;;;;;;;7.70;3.28;;;;;;;15.77;100.00;100086.81;4916958;29;20095;-83
2023/08/04 00:49:54;;;;;;;8.02;2.80;;;;;;;15.73;100.00;100090.50;4937528;29;20267;-84
2023/08/04 00:52:21;;;;;;;14.68;3.50;;;;;;;15.67;100.00;100092.47;4915059;29;20507;-86
2023/08/04 00:54:48;;;;;;;8.63;2.92;;;;;;;15.61;100.00;100087.41;4928772;29;20040;-84
2023/08/04 00:57:15;;;;;;;9.55;3.47;;;;;;;15.57;100.00;100096.38;4939563;29;20035;-84
2023/08/04 00:59:42;;;;;;;8.77;2.97;;;;;;;15.52;100.00;100106.25;4920344;29;20130;-85
2023/08/04 01:02:09;;;;;;;6.68;3.08;;;;;;;15.44;100.00;100103.03;4940467;29;20103;-84
2023/08/04 01:04:34;;;;;;;7.07;2.85;;;;;;;15.32;100.00;100099.94;4932480;29;20050;-84
2023/08/04 01:07:26;;;;;;;7.15;2.97;;;;;;;15.19;100.00;100098.69;4933699;29;21052;-84
2023/08/04 01:10:13;;;;;;;6.97;2.85;;;;;;;15.02;100.00;100099.31;4933353;29;20044;-84
2023/08/04 01:12:58;;;;;;;6.53;2.88;;;;;;;14.85;100.00;100113.09;4915772;29;20058;-84
2023/08/04 01:15:26;;;;;;;5.18;2.97;;;;;;;14.77;100.00;100112.47;4932785;29;20044;-84
2023/08/04 01:17:55;;;;;;;6.72;3.03;;;;;;;14.68;100.00;100114.53;4932488;29;20051;-83
2023/08/04 01:20:25;;;;;;;9.50;3.55;;;;;;;14.63;100.00;100115.59;4924626;29;20043;-84
2023/08/04 01:22:55;;;;;;;10.52;3.97;;;;;;;14.54;100.00;100119.38;4918079;29;20055;-83
2023/08/04 01:25:29;;;;;;;8.70;4.47;;;;;;;14.48;100.00;100111.69;4933696;29;20103;-84
2023/08/04 01:28:02;;;;;;;7.68;3.30;;;;;;;14.44;100.00;100116.19;4931245;29;20115;-86
2023/08/04 01:30:31;;;;;;;8.73;3.38;;;;;;;14.36;100.00;100115.59;4927620;29;20050;-86
2023/08/04 01:32:59;;;;;;;6.82;3.65;;;;;;;14.29;100.00;100114.06;4933231;29;20074;-84
2023/08/04 01:35:26;;;;;;;11.07;3.97;;;;;;;14.22;100.00;100110.78;4942226;23;20059;-83
2023/08/04 01:37:53;;;;;;;9.15;3.70;;;;;;;14.16;100.00;100122.38;4930006;29;20104;-88
2023/08/04 01:40:20;;;;;;;14.45;3.60;;;;;;;14.13;100.00;100118.97;4922607;29;20047;-86
2023/08/04 01:42:46;;;;;;;11.90;3.55;;;;;;;14.12;100.00;100125.13;4924607;29;20499;-92
2023/08/04 01:45:13;;;;;;;10.40;4.53;;;;;;;14.06;100.00;100116.53;4953485;28;20095;-83
2023/08/04 01:47:40;;;;;;;7.38;3.72;;;;;;;14.03;100.00;100119.28;4933243;29;20044;-87
2023/08/04 01:50:10;;;;;;;10.18;3.80;;;;;;;13.99;100.00;100127.31;4945520;29;20739;-83
2023/08/04 01:52:38;;;;;;;8.80;4.43;;;;;;;13.98;100.00;100125.59;4918055;29;20126;-84
2023/08/04 01:55:05;;;;;;;9.52;4.63;;;;;;;13.96;100.00;100124.78;4955783;28;20387;-84
2023/08/04 01:57:32;;;;;;;8.45;3.53;;;;;;;13.93;100.00;100124.88;4933891;29;20563;-85
2023/08/04 01:59:58;;;;;;;9.48;4.25;;;;;;;13.95;100.00;100130.94;4935716;29;20035;-85
2023/08/04 02:02:28;;;;;;;8.70;4.15;;;;;;;13.90;100.00;100133.72;4946412;29;20065;-83
2023/08/04 02:04:54;;;;;;;7.47;3.53;;;;;;;13.90;100.00;100136.38;4954986;28;20051;-82
2023/08/04 02:07:21;;;;;;;8.45;4.28;;;;;;;13.87;100.00;100133.81;4942416;29;20040;-83
2023/08/04 02:09:48;;;;;;;17.77;4.32;;;;;;;13.84;100.00;100137.38;4934170;29;20059;-91
2023/08/04 02:12:14;;;;;;;6.20;4.18;;;;;;;13.81;100.00;100142.75;4935483;29;20485;-83
2023/08/04 02:14:41;;;;;;;11.07;3.70;;;;;;;13.79;100.00;100155.09;4938613;29;20044;-83
2023/08/04 02:17:08;;;;;;;7.68;4.53;;;;;;;13.77;100.00;100151.66;4955874;28;21282;-84
2023/08/04 02:19:34;;;;;;;12.88;5.28;;;;;;;13.76;100.00;100160.44;4922307;29;20078;-85
2023/08/04 02:22:01;;;;;;;5.38;4.10;;;;;;;13.72;100.00;100157.03;4933965;29;20407;-85
2023/08/04 02:24:27;;;;;;;12.48;4.28;;;;;;;13.70;100.00;100168.50;4916980;29;20383;-84
2023/08/04 02:26:56;;;;;;;12.95;5.35;;;;;;;13.72;100.00;100166.72;4940502;29;20071;-84
2023/08/04 02:29:22;;;;;;;11.05;5.72;;;;;;;13.69;100.00;100172.94;4941427;29;20055;-84
2023/08/04 02:31:49;;;;;;;10.77;4.45;;;;;;;13.69;100.00;100175.56;4942507;29;20131;-87
2023/08/04 02:34:16;;;;;;;7.53;4.13;;;;;;;13.66;100.00;100188.81;4933609;29;20145;-84
2023/08/04 02:36:43;;;;;;;10.48;4.40;;;;;;;13.67;100.00;100180.00;4919358;29;20057;-91
2023/08/04 02:39:10;;;;;;;13.18;4.57;;;;;;;13.63;100.00;100188.03;4935092;28;20077;-84
2023/08/04 02:41:36;;;;;;;10.90;4.57;;;;;;;13.62;100.00;100181.88;4935946;28;20071;-82
2023/08/04 02:44:06;;;;;;;8.75;4.43;;;;;;;13.64;100.00;100184.50;4944843;28;20435;-83
2023/08/04 02:46:33;;;;;;;12.80;5.30;;;;;;;13.67;100.00;100184.41;4938008;29;20082;-84
2023/08/04 02:48:59;;;;;;;10.02;4.25;;;;;;;13.73;100.00;100186.84;4940034;28;20063;-84
2023/08/04 02:51:26;;;;;;;12.82;4.70;;;;;;;13.81;100.00;100190.13;4935594;29;20117;-84
2023/08/04 02:53:53;;;;;;;8.75;4.22;;;;;;;13.84;100.00;100191.78;4953246;28;20126;-84
2023/08/04 02:56:22;;;;;;;15.88;5.78;;;;;;;13.83;100.00;100192.69;4919851;29;20069;-85
2023/08/04 02:58:49;;;;;;;12.48;4.65;;;;;;;13.81;100.00;100195.38;4926203;28;20066;-84
2023/08/04 03:01:16;;;;;;;15.88;4.35;;;;;;;13.79;100.00;100194.53;4912240;29;20040;-84
2023/08/04 03:03:43;;;;;;;9.45;4.20;;;;;;;13.72;100.00;100190.38;4907544;28;20047;-84
2023/08/04 03:06:09;;;;;;;7.00;3.55;;;;;;;13.67;100.00;100194.91;4933960;29;20114;-84
2023/08/04 03:08:36;;;;;;;8.02;4.00;;;;;;;13.62;100.00;100192.41;4944803;28;20137;-88
2023/08/04 03:11:11;;;;;;;10.10;4.47;;;;;;;13.57;100.00;100189.06;4937026;28;20471;-84
2023/08/04 03:13:39;;;;;;;12.68;4.32;;;;;;;13.55;100.00;100202.25;4954618;28;20121;-85
2023/08/04 03:16:06;;;;;;;10.27;5.50;;;;;;;13.50;100.00;100204.16;4927168;28;20047;-84
2023/08/04 03:18:35;;;;;;;7.18;4.00;;;;;;;13.45;100.00;100206.03;4944277;28;20043;-83
2023/08/04 03:21:04;;;;;;;18.80;4.60;;;;;;;13.46;100.00;100209.56;4939289;28;20047;-83
2023/08/04 03:23:31;;;;;;;10.45;3.47;;;;;;;13.46;100.00;100218.28;4939304;28;20138;-85
2023/08/04 03:25:58;;;;;;;13.43;4.50;;;;;;;13.46;100.00;100214.81;4925201;28;20502;-84
2023/08/04 03:28:25;;;;;;;9.90;5.15;;;;;;;13.49;100.00;100219.97;4938103;29;20062;-86
2023/08/04 03:30:51;;;;;;;9.82;3.72;;;;;;;13.49;100.00;100225.22;4939666;28;20071;-84
2023/08/04 03:33:19;;;;;;;10.60;4.00;;;;;;;13.53;100.00;100225.13;4928976;29;20130;-86
2023/08/04 03:35:45;;;;;;;10.07;3.42;;;;;;;13.54;100.00;100226.81;4931374;28;20091;-84
2023/08/04 03:38:13;;;;;;;10.85;4.40;;;;;;;13.55;100.00;100225.91;4936151;28;20070;-84
2023/08/04 03:40:40;;;;;;;10.27;4.22;;;;;;;13.58;100.00;100235.50;4944219;28;20043;-92
2023/08/04 03:43:06;;;;;;;8.93;4.35;;;;;;;13.63;100.00;100241.47;4955874;28;20613;-87
2023/08/04 03:45:33;;;;;;;16.60;4.70;;;;;;;13.68;100.00;100244.84;4927511;28;20077;-84
2023/08/04 03:48:01;;;;;;;8.85;4.50;;;;;;;13.73;100.00;100250.84;4922655;28;20139;-88
2023/08/04 03:50:28;;;;;;;10.63;3.92;;;;;;;13.79;100.00;100252.41;4944352;28;20125;-85
2023/08/04 03:52:55;;;;;;;8.50;3.72;;;;;;;13.87;100.00;100260.09;4924067;28;20567;-84
2023/08/04 03:55:21;;;;;;;7.85;3.20;;;;;;;13.93;100.00;100259.06;4941537;29;20102;-85
2023/08/04 03:57:48;;;;;;;6.47;3.22;;;;;;;14.00;100.00;100253.59;4941817;29;20069;-84
2023/08/04 04:00:16;;;;;;;9.00;4.13;;;;;;;14.05;100.00;100256.94;4948811;28;20125;-84
2023/08/04 04:02:43;;;;;;;9.68;3.25;;;;;;;14.10;100.00;100254.16;4923971;28;20051;-86
2023/08/04 04:05:10;;;;;;;9.63;2.80;;;;;;;14.15;100.00;100252.25;4918508;28;20046;-83
2023/08/04 04:07:36;;;;;;;7.03;3.22;;;;;;;14.19;100.00;100253.03;4943060;28;20050;-83
2023/08/04 04:10:06;;;;;;;8.70;3.78;;;;;;;14.23;100.00;100257.28;4946430;28;20134;-83
2023/08/04 04:12:35;;;;;;;10.65;3.50;;;;;;;14.27;100.00;100256.28;4924498;28;20554;-84
2023/08/04 04:15:06;;;;;;;12.27;3.42;;;;;;;14.31;100.00;100262.31;4925653;28;20058;-84
2023/08/04 04:17:33;;;;;;;8.70;2.85;;;;;;;14.34;100.00;100263.09;4950796;28;20058;-84
2023/08/04 04:20:00;;;;;;;5.15;2.30;;;;;;;14.35;100.00;100267.47;4945007;28;20043;-86
2023/08/04 04:22:27;;;;;;;9.60;4.28;;;;;;;14.41;100.00;100269.03;4938257;29;20043;-83
2023/08/04 04:24:53;;;;;;;8.55;3.20;;;;;;;14.44;100.00;100281.25;4935336;28;20051;-84
2023/08/04 04:27:20;;;;;;;10.07;3.83;;;;;;;14.49;100.00;100277.53;4927978;29;20066;-84
2023/08/04 04:29:46;;;;;;;13.43;3.05;;;;;;;14.55;100.00;100287.03;4952644;28;20041;-88
2023/08/04 04:32:13;;;;;;;12.73;2.50;;;;;;;14.59;100.00;100280.75;4951698;28;20051;-85
2023/08/04 04:34:41;;;;;;;3.80;2.65;;;;;;;14.65;100.00;100279.72;4945586;29;20444;-83
2023/08/04 04:37:07;;;;;;;6.53;2.47;;;;;;;14.65;100.00;100277.97;4956324;28;20081;-83
2023/08/04 04:39:34;;;;;;;8.13;2.72;;;;;;;14.68;100.00;100277.88;4939128;29;20043;-83
2023/08/04 04:42:01;;;;;;;5.55;2.67;;;;;;;14.70;100.00;100281.28;4924948;29;20043;-86
2023/08/04 04:44:27;;;;;;;5.78;2.60;;;;;;;14.72;100.00;100282.13;4921074;29;20052;-84
2023/08/04 04:46:56;;;;;;;5.38;2.38;;;;;;;14.76;100.00;100280.25;4940929;29;20075;-86
2023/08/04 04:49:24;;;;;;;5.22;2.67;;;;;;;14.79;100.00;100281.94;4942643;29;20066;-84
2023/08/04 04:51:54;;;;;;;6.60;2.03;;;;;;;14.84;100.00;100282.66;4940550;28;20027;-84
2023/08/04 04:54:23;;;;;;;5.97;2.55;;;;;;;14.86;100.00;100275.53;4925143;29;20118;-84
2023/08/04 04:56:50;;;;;;;7.18;2.67;;;;;;;14.90;100.00;100279.81;4942821;28;20118;-84
2023/08/04 04:59:18;;;;;;;5.78;2.63;;;;;;;14.92;100.00;100285.88;4937971;29;20050;-84
2023/08/04 05:01:45;;;;;;;5.32;1.90;;;;;;;14.91;100.00;100286.78;4924295;28;20633;-85
2023/08/04 05:04:12;;;;;;;4.35;2.15;;;;;;;14.92;100.00;100285.03;4939690;28;20126;-84
2023/08/04 05:06:39;;;;;;;5.43;2.50;;;;;;;14.95;100.00;100293.69;4949327;28;20071;-85
2023/08/04 05:09:05;;;;;;;4.15;2.25;;;;;;;14.98;100.00;100290.06;4919613;28;20126;-84
2023/08/04 05:11:32;;;;;;;5.63;2.45;;;;;;;14.99;100.00;100295.31;4938835;29;20053;-84
2023/08/04 05:14:01;;;;;;;6.72;3.42;;;;;;;14.97;100.00;100302.41;4937854;28;20106;-86
2023/08/04 05:16:27;;;;;;;9.32;2.75;;;;;;;15.02;100.00;100300.47;4925817;29;20055;-85
2023/08/04 05:18:56;;;;;;;4.05;2.47;;;;;;;15.02;100.00;100305.75;4924455;28;20042;-90
2023/08/04 05:21:22;;;;;;;4.93;2.20;;;;;;;15.03;100.00;100303.97;4922265;29;20047;-84
2023/08/04 05:23:51;;;;;;;4.18;1.80;;;;;;;15.01;100.00;100308.44;4938255;28;20071;-84
2023/08/04 05:26:17;;;;;;;4.38;2.13;;;;;;;15.05;100.00;100303.00;4939449;28;20047;-85
2023/08/04 05:28:44;;;;;;;5.10;2.20;;;;;;;15.09;100.00;100310.84;4940547;28;20042;-84
2023/08/04 05:31:10;;;;;;;6.10;2.90;;;;;;;15.15;100.00;100311.47;4921702;28;20502;-83
2023/08/04 05:33:39;;;;;;;4.82;2.58;;;;;;;15.20;100.00;100314.84;4938535;29;20035;-84
2023/08/04 05:36:08;;;;;;;7.68;2.30;;;;;;;15.33;100.00;100311.75;4938778;28;20102;-83
2023/08/04 05:38:35;;;;;;;9.85;2.67;;;;;;;15.39;100.00;100316.84;4927830;28;20491;-84
2023/08/04 05:41:03;;;;;;;12.02;2.40;;;;;;;15.41;100.00;100315.03;4923033;28;20071;-87
2023/08/04 05:43:31;;;;;;;3.08;1.77;;;;;;;15.42;100.00;100316.72;4928069;29;20406;-85
2023/08/04 05:46:03;;;;;;;10.30;2.47;;;;;;;15.43;100.00;100322.88;4931697;28;20054;-88
2023/08/04 05:48:34;;;;;;;8.30;2.55;;;;;;;15.48;100.00;100319.16;4942549;29;20051;-85
2023/08/04 05:51:01;;;;;;;5.38;2.10;;;;;;;15.55;100.00;100330.34;4944249;28;20047;-83
2023/08/04 05:53:28;;;;;;;3.50;1.92;;;;;;;15.59;100.00;100328.47;4933655;29;20618;-83
2023/08/04 05:55:57;;;;;;;5.57;3.13;;;;;;;15.62;100.00;100339.78;4942674;29;20051;-83
2023/08/04 05:58:24;;;;;;;3.17;1.73;;;;;;;15.69;100.00;100340.44;4941650;28;20056;-85
2023/08/04 06:00:50;;;;;;;3.00;2.58;;;;;;;15.77;100.00;100329.59;4941511;28;20031;-84
2023/08/04 06:03:17;;;;;;;6.65;2.55;;;;;;;15.77;100.00;100337.53;4926363;28;20143;-84
2023/08/04 06:05:46;;;;;;;5.75;2.22;;;;;;;15.82;100.00;100338.25;4930749;29;20055;-83
2023/08/04 06:08:13;;;;;;;2.67;1.92;;;;;;;15.85;100.00;100343.41;4940000;29;20059;-83
2023/08/04 06:10:40;;;;;;;2.95;2.65;;;;;;;15.90;100.00;100348.53;4934923;28;20380;-86
2023/08/04 06:13:07;;;;;;;6.32;2.13;;;;;;;15.94;100.00;100345.72;4943594;28;20117;-82
2023/08/04 06:15:34;;;;;;;9.18;3.05;;;;;;;15.97;100.00;100350.03;4909488;29;20068;-81
2023/08/04 06:18:00;;;;;;;4.03;2.15;;;;;;;16.06;100.00;100348.84;4932208;28;20486;-83
2023/08/04 06:20:27;;;;;;;15.93;3.83;;;;;;;16.12;100.00;100354.75;4939438;29;20055;-85
2023/08/04 06:22:54;;;;;;;4.93;2.08;;;;;;;16.17;100.00;100350.16;4926309;28;20057;-87
2023/08/04 06:25:20;;;;;;;4.00;1.65;;;;;;;16.28;100.00;100349.78;4945921;28;20126;-83
2023/08/04 06:27:47;;;;;;;7.97;1.95;;;;;;;16.33;100.00;100349.59;4945008;29;20106;-83
2023/08/04 06:30:13;;;;;;;3.45;2.22;;;;;;;16.37;100.00;100352.06;4936208;28;20058;-87
2023/08/04 06:32:40;;;;;;;3.83;2.33;;;;;;;16.44;100.00;100357.09;4943180;29;20078;-83
2023/08/04 06:35:08;;;;;;;5.40;2.60;;;;;;;16.49;100.00;100358.66;4930485;28;20063;-82
2023/08/04 06:37:38;;;;;;;4.15;1.77;;;;;;;16.60;100.00;100352.09;4932806;28;20055;-83
2023/08/04 06:40:07;;;;;;;3.40;1.48;;;;;;;16.69;100.00;100362.31;4933152;28;20051;-83
2023/08/04 06:42:33;;;;;;;13.43;2.80;;;;;;;16.71;100.00;100355.16;4952470;29;20824;-83
2023/08/04 06:45:01;;;;;;;4.53;2.00;;;;;;;16.83;100.00;100356.47;4935637;29;20045;-82
2023/08/04 06:47:30;;;;;;;3.15;2.00;;;;;;;17.05;100.00;100356.50;4920884;29;20051;-82
2023/08/04 06:49:57;;;;;;;5.10;2.03;;;;;;;17.18;100.00;100368.31;4942586;29;20126;-91
2023/08/04 06:52:24;;;;;;;9.00;2.63;;;;;;;17.21;100.00;100367.31;4937121;29;20051;-85
2023/08/04 06:54:51;;;;;;;3.33;1.35;;;;;;;17.20;100.00;100371.72;4946520;28;20134;-84
2023/08/04 06:57:20;;;;;;;4.15;1.75;;;;;;;17.27;100.00;100372.34;4943301;28;20062;-83
2023/08/04 06:59:46;;;;;;;9.25;2.20;;;;;;;17.29;100.00;100378.44;4947346;28;20491;-83
2023/08/04 07:02:13;;;;;;;5.55;2.25;;;;;;;17.38;100.00;100386.91;4946997;29;20055;-84
2023/08/04 07:04:39;;;;;;;7.47;1.75;;;;;;;17.45;100.00;100391.03;4942226;29;20114;-83
2023/08/04 07:07:09;;;;;;;4.15;1.73;;;;;;;17.37;100.00;100386.06;4939624;29;20047;-83
2023/08/04 07:09:36;;;;;;;6.20;2.15;;;;;;;17.35;100.00;100388.78;4944952;28;20046;-84
2023/08/04 07:12:06;;;;;;;3.53;1.17;;;;;;;17.28;100.00;100389.94;4945009;28;20043;-83
2023/08/04 07:14:32;;;;;;;4.03;1.80;;;;;;;17.33;100.00;100390.63;4947737;29;20074;-83
2023/08/04 07:17:01;;;;;;;4.93;1.83;;;;;;;17.37;100.00;100394.00;4937616;29;20050;-84
2023/08/04 07:19:31;;;;;;;4.50;1.60;;;;;;;17.31;100.00;100395.13;4933105;29;20040;-83
2023/08/04 07:22:00;;;;;;;4.35;1.65;;;;;;;17.23;100.00;100396.34;4942205;29;20106;-85
2023/08/04 07:24:28;;;;;;;9.65;2.22;;;;;;;17.24;100.00;100400.72;4932356;29;20110;-83
2023/08/04 07:26:54;;;;;;;6.65;2.10;;;;;;;17.27;100.00;100405.88;4944033;28;20684;-85
2023/08/04 07:29:21;;;;;;;5.10;2.17;;;;;;;17.23;100.00;100399.84;4943076;28;20049;-92
2023/08/04 07:31:48;;;;;;;6.45;2.00;;;;;;;17.40;100.00;100408.88;4965530;28;20098;-82
2023/08/04 07:34:14;;;;;;;4.20;2.00;;;;;;;17.55;100.00;100410.03;4944362;29;20110;-85
2023/08/04 07:36:41;;;;;;;3.90;1.98;;;;;;;17.68;100.00;100414.75;4941850;28;20550;-83
2023/08/04 07:39:08;;;;;;;8.70;1.70;;;;;;;17.73;99.15;100422.50;4963585;28;20038;-83
2023/08/04 07:41:35;;;;;;;6.93;1.88;;;;;;;17.65;99.60;100422.81;4934306;28;20074;-84
2023/08/04 07:44:01;;;;;;;4.68;1.95;;;;;;;17.66;99.42;100427.19;4955997;28;20039;-86
2023/08/04 07:46:30;;;;;;;6.30;1.48;;;;;;;17.82;99.44;100418.56;4952681;29;20043;-83
2023/08/04 07:48:57;;;;;;;5.25;1.20;;;;;;;18.03;98.69;100424.78;4959902;28;20047;-82
2023/08/04 07:51:25;;;;;;;4.50;2.30;;;;;;;18.21;97.34;100423.09;4943782;28;20047;-85
2023/08/04 07:53:53;;;;;;;1.88;1.52;;;;;;;18.24;95.71;100425.63;4943267;28;20063;-84
2023/08/04 07:56:20;;;;;;;3.72;1.33;;;;;;;18.29;94.57;100434.22;4951944;28;20089;-86
2023/08/04 07:58:47;;;;;;;4.40;1.48;;;;;;;18.47;95.16;100435.19;4948417;29;20125;-86
2023/08/04 08:01:14;;;;;;;5.43;1.77;;;;;;;18.71;93.69;100442.94;4948412;28;20046;-93
2023/08/04 08:03:41;;;;;;;4.40;1.38;;;;;;;18.92;92.62;100445.56;4929638;28;20048;-85
2023/08/04 08:06:08;;;;;;;2.13;1.55;;;;;;;18.84;91.53;100445.88;4944271;28;20090;-83
2023/08/04 08:08:35;;;;;;;1.55;1.48;;;;;;;18.83;92.31;100446.81;4934738;29;20066;-83
2023/08/04 08:11:03;;;;;;;3.28;1.42;;;;;;;18.68;92.01;100458.97;4942497;29;20061;-86
2023/08/04 08:13:30;;;;;;;4.00;1.20;;;;;;;18.65;92.73;100452.03;4937097;29;20509;-85
2023/08/04 08:15:57;;;;;;;3.05;1.02;;;;;;;18.81;91.69;100449.53;4942812;28;20051;-83
2023/08/04 08:18:23;;;;;;;2.72;1.30;;;;;;;18.87;90.98;100453.69;4938369;28;20043;-83
2023/08/04 08:20:51;;;;;;;5.30;1.63;;;;;;;18.95;91.03;100451.56;4938567;29;20061;-85
2023/08/04 08:23:19;;;;;;;1.65;1.48;;;;;;;19.20;88.87;100460.16;4926145;28;20087;-86
2023/08/04 08:25:48;;;;;;;1.35;1.00;;;;;;;19.36;88.65;100460.25;4939784;28;20086;-83
2023/08/04 08:28:15;;;;;;;4.55;1.90;;;;;;;19.70;87.38;100467.44;4931151;28;20043;-83
2023/08/04 08:30:45;;;;;;;5.22;1.38;;;;;;;19.68;85.80;100466.63;4941671;28;20106;-87
2023/08/04 08:33:12;;;;;;;5.72;1.48;;;;;;;19.63;85.78;100468.66;4941100;28;20498;-88
2023/08/04 08:35:38;;;;;;;7.22;1.50;;;;;;;19.60;86.48;100476.78;4962612;28;20031;-91
2023/08/04 08:38:05;;;;;;;3.80;1.40;;;;;;;19.83;86.35;100473.88;4951253;28;20086;-92
2023/08/04 08:40:32;;;;;;;2.75;1.38;;;;;;;19.97;86.06;100478.50;4940211;29;20059;-87
2023/08/04 08:43:00;;;;;;;3.20;1.13;;;;;;;20.12;82.79;100486.63;4922084;28;20050;-86
2023/08/04 08:45:30;;;;;;;4.80;1.50;;;;;;;19.95;84.24;100490.13;4925149;28;20055;-86
2023/08/04 08:47:57;;;;;;;7.78;1.35;;;;;;;20.11;83.20;100488.41;4922594;28;20058;-87
2023/08/04 08:50:29;;;;;;;5.03;1.50;;;;;;;20.40;81.84;100501.13;4947989;28;20086;-85
2023/08/04 08:53:11;;;;;;;4.85;1.17;;;;;;;20.69;80.31;100496.91;4949910;28;20043;-91
2023/08/04 08:55:38;;;;;;;5.25;1.95;;;;;;;20.76;80.33;100497.47;4951129;28;20043;-87
2023/08/04 08:58:06;;;;;;;5.07;1.20;;;;;;;20.75;77.97;100499.25;4946771;28;20051;-87
2023/08/04 09:00:35;;;;;;;3.10;0.93;;;;;;;21.06;76.51;100499.41;4955862;28;20118;-86
2023/08/04 09:03:05;;;;;;;0.60;0.60;;;;;;;21.52;74.48;100491.47;4955431;28;20099;-87
2023/08/04 09:05:35;;;;;;;3.25;1.15;;;;;;;21.54;73.35;100507.38;4944905;28;20476;-86
2023/08/04 09:08:02;;;;;;;5.22;0.80;;;;;;;21.47;73.24;100498.84;4942671;28;20063;-84
2023/08/04 09:10:32;;;;;;;2.67;0.80;;;;;;;21.60;74.13;100510.56;4942429;28;20039;-84
2023/08/04 09:12:59;;;;;;;1.73;1.00;;;;;;;22.02;73.46;100505.50;4946309;28;20091;-85
2023/08/04 09:15:47;;;;;;;1.55;0.85;;;;;;;22.70;70.56;100500.56;4941763;28;20046;-82
2023/08/04 09:18:36;;;;;;;2.72;1.20;;;;;;;23.29;65.77;100503.91;4935870;29;20051;-85
2023/08/04 09:21:09;;;;;;;2.08;0.55;;;;;;;23.62;66.12;100500.00;4938296;28;20053;-93
2023/08/04 09:23:44;;;;;;;2.53;1.07;;;;;;;23.87;64.65;100493.00;4936849;29;20050;-84
2023/08/04 09:26:10;;;;;;;3.17;1.10;;;;;;;24.09;63.67;100503.16;4959269;28;20061;-83
2023/08/04 09:28:39;;;;;;;0.60;0.57;;;;;;;24.14;63.53;100502.81;4939805;29;20059;-84
2023/08/04 09:31:14;;;;;;;0.70;0.70;;;;;;;24.85;59.29;100502.38;4943082;28;20134;-85
2023/08/04 09:33:43;;;;;;;2.80;0.60;;;;;;;25.01;58.90;100499.50;4929826;28;20138;-85
2023/08/04 09:36:17;;;;;;;2.08;0.80;;;;;;;24.69;58.55;100494.59;4939549;28;20459;-88
2023/08/04 09:38:43;;;;;;;2.88;0.98;;;;;;;24.42;59.13;100501.75;4922563;28;20139;-84
2023/08/04 09:41:17;;;;;;;2.38;0.95;;;;;;;23.83;61.91;100499.53;4938960;28;20125;-88
2023/08/04 09:43:49;;;;;;;2.85;0.90;;;;;;;23.42;61.75;100490.63;4947268;28;20114;-82
2023/08/04 09:46:20;;;;;;;2.55;0.75;;;;;;;22.95;63.31;100500.72;4930873;28;20042;-84
2023/08/04 09:48:48;;;;;;;3.08;0.82;;;;;;;22.74;64.43;100502.06;4940844;28;20039;-85
2023/08/04 09:51:21;;;;;;;1.48;0.73;;;;;;;22.63;63.70;100495.59;4931980;28;20066;-91
2023/08/04 09:53:50;;;;;;;2.65;1.10;;;;;;;22.14;64.73;100503.91;4942588;29;20054;-87
2023/08/04 09:56:19;;;;;;;2.38;0.85;;;;;;;21.85;66.97;100497.63;4937051;28;20051;-83
2023/08/04 09:58:48;;;;;;;2.10;1.33;;;;;;;22.10;66.89;100500.53;4942840;28;20071;-84
2023/08/04 10:01:19;;;;;;;0.50;0.50;;;;;;;23.08;63.41;100495.44;4958919;28;20054;-82
2023/08/04 10:03:57;;;;;;;1.90;0.85;;;;;;;23.53;60.82;100499.75;4945851;28;20182;-84
2023/08/04 10:06:28;;;;;;;4.03;0.80;;;;;;;23.64;61.68;100501.72;4944523;28;20057;-85
2023/08/04 10:08:58;;;;;;;1.65;0.88;;;;;;;23.43;61.27;100505.69;4938162;28;20035;-84
2023/08/04 10:11:25;;;;;;;0.95;0.40;;;;;;;23.01;62.51;100511.94;4932363;28;20047;-84
2023/08/04 10:14:00;;;;;;;1.00;0.82;;;;;;;22.27;64.01;100507.53;4940175;28;20047;-84
2023/08/04 10:16:35;;;;;;;1.80;1.08;;;;;;;21.77;65.98;100514.94;4942473;28;20047;-84
2023/08/04 10:19:06;;;;;;;2.47;0.77;;;;;;;21.22;67.75;100520.69;4942922;29;20047;-84
2023/08/04 10:21:39;;;;;;;2.13;1.05;;;;;;;20.95;68.86;100519.47;4939425;28;20035;-86
2023/08/04 10:24:11;;;;;;;2.33;0.53;;;;;;;20.71;70.76;100518.13;4946494;28;20128;-94
2023/08/04 10:26:53;;;;;;;1.25;0.82;;;;;;;20.55;72.63;100513.59;4938944;28;20049;-84
2023/08/04 10:29:23;;;;;;;2.00;0.60;;;;;;;20.81;72.49;100509.56;4938046;28;20043;-83
2023/08/04 10:32:07;;;;;;;1.10;0.77;;;;;;;22.46;68.51;100499.31;4939663;28;20046;-84
2023/08/04 10:34:54;;;;;;;1.23;0.50;;;;;;;24.59;59.33;100503.25;4925524;29;20066;-84
2023/08/04 10:37:23;;;;;;;3.35;1.10;;;;;;;25.51;56.71;100510.16;4954773;28;20019;-83
2023/08/04 10:40:02;;;;;;;1.23;0.95;;;;;;;27.37;52.41;100507.41;4921127;28;20051;-83
2023/08/04 10:42:36;;;;;;;1.00;0.60;;;;;;;29.02;46.76;100504.16;4942613;28;20050;-82
2023/08/04 10:45:15;;;;;;;2.03;0.93;;;;;;;27.66;47.29;100513.06;4926762;29;20110;-83
2023/08/04 10:47:58;;;;;;;2.67;0.45;;;;;;;26.25;49.47;100516.19;4933455;28;20047;-86
2023/08/04 10:50:26;;;;;;;3.13;1.00;;;;;;;25.12;53.48;100509.41;4941486;29;20502;-84
2023/08/04 10:52:55;;;;;;;2.42;0.82;;;;;;;24.49;54.49;100515.56;4936602;28;20053;-84
2023/08/04 10:55:28;;;;;;;0.70;0.65;;;;;;;23.90;56.04;100518.72;4946154;28;20074;-83
2023/08/04 10:58:01;;;;;;;1.30;0.77;;;;;;;23.51;56.19;100520.38;4946739;28;20097;-82
2023/08/04 11:00:33;;;;;;;;;;;;;;;22.98;58.58;100517.50;4936152;28;20047;-83
2023/08/04 11:02:59;;;;;;;2.22;0.82;;;;;;;22.62;58.45;100527.72;4921612;29;20017;-84
2023/08/04 11:05:26;;;;;;;0.82;0.25;;;;;;;22.55;58.47;100523.69;4933767;28;20051;-86
2023/08/04 11:07:52;;;;;;;2.40;0.60;;;;;;;22.30;59.17;100533.16;4952983;28;20115;-83
2023/08/04 11:10:19;;;;;;;0.50;0.50;;;;;;;22.00;60.36;100525.19;4923399;28;20126;-84
2023/08/04 11:12:46;;;;;;;0.85;0.85;;;;;;;21.94;61.58;100535.25;4919166;29;20479;-85
2023/08/04 11:15:13;;;;;;;0.95;0.55;;;;;;;22.37;59.75;100531.00;4938363;28;20043;-85
2023/08/04 11:17:46;;;;;;;0.40;0.40;;;;;;;23.02;57.99;100524.34;4943139;28;20027;-84
2023/08/04 11:20:15;;;;;;;1.65;0.60;;;;;;;23.67;53.46;100534.41;4932932;28;20138;-86
2023/08/04 11:22:46;;;;;;;2.38;0.47;;;;;;;23.40;53.54;100529.94;4934705;28;20046;-84
2023/08/04 11:25:12;;;;;;;1.33;0.85;;;;;;;23.24;55.40;100532.72;4942776;28;20068;-86